Airfield :
LOGIN :

Register | Disclaimer

   EN    FR    IT 

 










Legend :    VFR   Marginal VFR   IFR   Intensive IFR   Very Intensive IFR
Visi :
Ceiling :
>= 8 km
>= 3000ft
5 to 8 km
1000 to 3000 ft
1500m to 5 km
500 to 1000 ft
800 to 1500m
200 to 500 ft
< 800m
< 200 ft
Symbols :   Thunderstorms  Fog  Heavy snow  Heavy precipitations  Wind > 20 kt
SIGMETs :     Misc.  Thunderstorms  Icing  Turbulence  Mountain Waves  Volcanic Ashes






- Airport Elevation : 21 ft
- IATA code : VST


ESOW - Stockholm Västerås

CURRENT METAR :
  • 231850Z AUTO 10008KT 040V120 9999 NCD 20/10 Q1020

EXPIRED METARs :
  • 231820Z AUTO 11007KT 9999 FEW100/// 20/10 Q1020
  • 231750Z AUTO 10008KT 050V130 9999 NCD 20/10 Q1020
  • 231720Z AUTO 11010KT 070V130 9999 SCT100/// 21/09 Q1020
  • 231650Z AUTO 10010KT 060V130 9999 BKN100/// 22/09 Q1020
  • 231620Z AUTO 11010KT 070V130 9999 NCD 22/09 Q1020
  • 231550Z AUTO 11013KT 9999 NCD 23/10 Q1020
  • 231520Z AUTO 11013KT 070V130 9999 NCD 23/10 Q1020
  • 231450Z AUTO 10013KT 070V130 9999 NCD 23/09 Q1020
  • 231420Z AUTO 10014KT 9999 NCD 23/10 Q1020
  • 231350Z 11012KT 060V140 CAVOK 24/10 Q1020

Expired Forecast.



MET'MAP, your aeronautical weather chart ! - Copyright ORBIFLY December 2007 - Disclaimer

ORBIFLY MET'MAP TEAM :

Programming & Development : Alexandra Zaïnal
Original concept : Baudouin d'Aumeries
Technical & hardware support : Manuel Goepfert
Assistance : Marc-Olivier Méhu




SOURCES & CREDITS :

   NOAA